sensor_id;sensor_type;location;lat;lon;timestamp;P1;durP1;ratioP1;P2;durP2;ratioP2
74465;SDS011;62916;50.044;15.938;2022-11-15T00:02:20;5.30;;;4.70;;
74465;SDS011;62916;50.044;15.938;2022-11-15T00:04:51;5.50;;;5.00;;
74465;SDS011;62916;50.044;15.938;2022-11-15T00:07:22;5.60;;;4.50;;
74465;SDS011;62916;50.044;15.938;2022-11-15T00:10:13;5.50;;;5.00;;
74465;SDS011;62916;50.044;15.938;2022-11-15T00:12:44;5.90;;;5.10;;
74465;SDS011;62916;50.044;15.938;2022-11-15T00:15:16;4.90;;;4.40;;
74465;SDS011;62916;50.044;15.938;2022-11-15T00:17:49;4.80;;;4.30;;
74465;SDS011;62916;50.044;15.938;2022-11-15T00:20:20;5.10;;;4.60;;
74465;SDS011;62916;50.044;15.938;2022-11-15T00:22:50;5.00;;;4.60;;
74465;SDS011;62916;50.044;15.938;2022-11-15T00:25:21;5.10;;;4.30;;
74465;SDS011;62916;50.044;15.938;2022-11-15T00:27:55;4.60;;;4.10;;
74465;SDS011;62916;50.044;15.938;2022-11-15T00:30:27;5.20;;;4.70;;
74465;SDS011;62916;50.044;15.938;2022-11-15T00:32:59;4.50;;;4.10;;
74465;SDS011;62916;50.044;15.938;2022-11-15T00:35:33;4.40;;;4.00;;
74465;SDS011;62916;50.044;15.938;2022-11-15T00:38:04;4.60;;;4.20;;
74465;SDS011;62916;50.044;15.938;2022-11-15T00:40:35;5.10;;;4.40;;
74465;SDS011;62916;50.044;15.938;2022-11-15T00:43:05;4.90;;;4.40;;
74465;SDS011;62916;50.044;15.938;2022-11-15T00:45:36;4.40;;;4.00;;
74465;SDS011;62916;50.044;15.938;2022-11-15T00:48:07;4.90;;;4.40;;
74465;SDS011;62916;50.044;15.938;2022-11-15T00:50:38;4.60;;;4.20;;
74465;SDS011;62916;50.044;15.938;2022-11-15T00:53:09;4.70;;;4.20;;
74465;SDS011;62916;50.044;15.938;2022-11-15T00:55:40;4.80;;;4.20;;
74465;SDS011;62916;50.044;15.938;2022-11-15T00:58:11;4.70;;;4.20;;
74465;SDS011;62916;50.044;15.938;2022-11-15T01:00:42;5.80;;;5.20;;
74465;SDS011;62916;50.044;15.938;2022-11-15T01:03:13;5.30;;;4.10;;
74465;SDS011;62916;50.044;15.938;2022-11-15T01:05:44;4.50;;;4.00;;
74465;SDS011;62916;50.044;15.938;2022-11-15T01:08:15;4.40;;;4.00;;
74465;SDS011;62916;50.044;15.938;2022-11-15T01:10:46;4.90;;;4.20;;
74465;SDS011;62916;50.044;15.938;2022-11-15T01:13:16;5.30;;;4.80;;
74465;SDS011;62916;50.044;15.938;2022-11-15T01:15:47;5.10;;;4.50;;
74465;SDS011;62916;50.044;15.938;2022-11-15T01:18:18;5.00;;;4.50;;
74465;SDS011;62916;50.044;15.938;2022-11-15T01:20:49;4.80;;;4.30;;
74465;SDS011;62916;50.044;15.938;2022-11-15T01:23:20;4.60;;;4.10;;
74465;SDS011;62916;50.044;15.938;2022-11-15T01:25:51;4.50;;;4.10;;
74465;SDS011;62916;50.044;15.938;2022-11-15T01:28:26;4.60;;;4.20;;
74465;SDS011;62916;50.044;15.938;2022-11-15T01:31:00;4.60;;;4.10;;
74465;SDS011;62916;50.044;15.938;2022-11-15T01:33:33;5.10;;;4.00;;
74465;SDS011;62916;50.044;15.938;2022-11-15T01:36:05;5.10;;;4.60;;
74465;SDS011;62916;50.044;15.938;2022-11-15T01:38:38;4.60;;;4.10;;
74465;SDS011;62916;50.044;15.938;2022-11-15T01:41:14;4.60;;;4.20;;
74465;SDS011;62916;50.044;15.938;2022-11-15T01:43:48;4.40;;;4.00;;
74465;SDS011;62916;50.044;15.938;2022-11-15T01:46:23;4.40;;;3.90;;
74465;SDS011;62916;50.044;15.938;2022-11-15T01:48:58;4.30;;;3.90;;
74465;SDS011;62916;50.044;15.938;2022-11-15T01:51:32;5.50;;;4.40;;
74465;SDS011;62916;50.044;15.938;2022-11-15T01:54:04;6.00;;;4.40;;
74465;SDS011;62916;50.044;15.938;2022-11-15T01:56:40;5.00;;;4.20;;
74465;SDS011;62916;50.044;15.938;2022-11-15T01:59:14;4.60;;;4.10;;
74465;SDS011;62916;50.044;15.938;2022-11-15T02:01:46;4.50;;;4.10;;
74465;SDS011;62916;50.044;15.938;2022-11-15T02:04:18;4.70;;;4.20;;
74465;SDS011;62916;50.044;15.938;2022-11-15T02:06:53;4.50;;;4.00;;
74465;SDS011;62916;50.044;15.938;2022-11-15T02:09:24;4.80;;;4.20;;
74465;SDS011;62916;50.044;15.938;2022-11-15T02:11:55;4.50;;;4.10;;
74465;SDS011;62916;50.044;15.938;2022-11-15T02:14:28;5.00;;;3.90;;
74465;SDS011;62916;50.044;15.938;2022-11-15T02:17:02;4.90;;;4.40;;
74465;SDS011;62916;50.044;15.938;2022-11-15T02:23:03;4.80;;;4.30;;
74465;SDS011;62916;50.044;15.938;2022-11-15T02:25:49;4.70;;;4.20;;
74465;SDS011;62916;50.044;15.938;2022-11-15T02:28:40;4.40;;;4.00;;
74465;SDS011;62916;50.044;15.938;2022-11-15T02:31:20;4.50;;;3.90;;
74465;SDS011;62916;50.044;15.938;2022-11-15T02:33:59;4.60;;;3.80;;
74465;SDS011;62916;50.044;15.938;2022-11-15T02:36:35;4.30;;;3.90;;
74465;SDS011;62916;50.044;15.938;2022-11-15T02:39:15;4.30;;;3.80;;
74465;SDS011;62916;50.044;15.938;2022-11-15T02:41:53;4.20;;;3.70;;
74465;SDS011;62916;50.044;15.938;2022-11-15T02:44:30;4.40;;;4.00;;
74465;SDS011;62916;50.044;15.938;2022-11-15T02:47:06;4.50;;;4.00;;
74465;SDS011;62916;50.044;15.938;2022-11-15T02:49:43;4.70;;;4.10;;
74465;SDS011;62916;50.044;15.938;2022-11-15T02:54:53;3.90;;;3.60;;
74465;SDS011;62916;50.044;15.938;2022-11-15T02:57:28;4.50;;;4.10;;
74465;SDS011;62916;50.044;15.938;2022-11-15T03:00:12;4.50;;;4.00;;
74465;SDS011;62916;50.044;15.938;2022-11-15T03:02:49;3.90;;;3.50;;
74465;SDS011;62916;50.044;15.938;2022-11-15T03:05:37;4.00;;;3.60;;
74465;SDS011;62916;50.044;15.938;2022-11-15T03:08:15;3.80;;;3.50;;
74465;SDS011;62916;50.044;15.938;2022-11-15T03:10:54;4.30;;;3.90;;
74465;SDS011;62916;50.044;15.938;2022-11-15T03:13:33;3.80;;;3.40;;
74465;SDS011;62916;50.044;15.938;2022-11-15T03:16:09;4.20;;;3.70;;
74465;SDS011;62916;50.044;15.938;2022-11-15T03:18:45;4.40;;;4.00;;
74465;SDS011;62916;50.044;15.938;2022-11-15T03:21:21;3.80;;;3.40;;
74465;SDS011;62916;50.044;15.938;2022-11-15T03:23:53;4.80;;;4.40;;
74465;SDS011;62916;50.044;15.938;2022-11-15T03:28:58;4.20;;;3.80;;
74465;SDS011;62916;50.044;15.938;2022-11-15T03:31:34;5.10;;;4.30;;
74465;SDS011;62916;50.044;15.938;2022-11-15T03:34:20;6.30;;;4.00;;
74465;SDS011;62916;50.044;15.938;2022-11-15T03:36:56;4.40;;;3.70;;
74465;SDS011;62916;50.044;15.938;2022-11-15T03:39:27;4.70;;;4.20;;
74465;SDS011;62916;50.044;15.938;2022-11-15T03:42:01;4.10;;;3.70;;
74465;SDS011;62916;50.044;15.938;2022-11-15T03:44:42;5.00;;;3.80;;
74465;SDS011;62916;50.044;15.938;2022-11-15T03:47:20;4.40;;;3.80;;
74465;SDS011;62916;50.044;15.938;2022-11-15T03:49:57;3.90;;;3.50;;
74465;SDS011;62916;50.044;15.938;2022-11-15T03:52:32;4.60;;;4.00;;
74465;SDS011;62916;50.044;15.938;2022-11-15T03:55:06;4.70;;;4.20;;
74465;SDS011;62916;50.044;15.938;2022-11-15T03:57:39;4.60;;;4.20;;
74465;SDS011;62916;50.044;15.938;2022-11-15T04:00:11;4.50;;;3.90;;
74465;SDS011;62916;50.044;15.938;2022-11-15T04:02:42;4.50;;;4.10;;
74465;SDS011;62916;50.044;15.938;2022-11-15T04:05:13;3.90;;;3.50;;
74465;SDS011;62916;50.044;15.938;2022-11-15T04:07:44;7.60;;;4.40;;
74465;SDS011;62916;50.044;15.938;2022-11-15T04:10:15;3.80;;;3.50;;
74465;SDS011;62916;50.044;15.938;2022-11-15T04:12:46;4.30;;;3.80;;
74465;SDS011;62916;50.044;15.938;2022-11-15T04:15:17;4.00;;;3.60;;
74465;SDS011;62916;50.044;15.938;2022-11-15T04:17:51;4.20;;;3.80;;
74465;SDS011;62916;50.044;15.938;2022-11-15T04:20:24;5.10;;;3.50;;
74465;SDS011;62916;50.044;15.938;2022-11-15T04:23:14;3.80;;;3.40;;
74465;SDS011;62916;50.044;15.938;2022-11-15T04:26:04;4.30;;;3.50;;
74465;SDS011;62916;50.044;15.938;2022-11-15T04:28:38;3.40;;;3.10;;
74465;SDS011;62916;50.044;15.938;2022-11-15T04:31:23;4.00;;;3.40;;
74465;SDS011;62916;50.044;15.938;2022-11-15T04:33:55;5.10;;;3.70;;
74465;SDS011;62916;50.044;15.938;2022-11-15T04:36:26;4.10;;;3.60;;
74465;SDS011;62916;50.044;15.938;2022-11-15T04:39:13;7.80;;;4.40;;
74465;SDS011;62916;50.044;15.938;2022-11-15T04:41:44;5.70;;;4.10;;
74465;SDS011;62916;50.044;15.938;2022-11-15T04:44:15;5.70;;;4.30;;
74465;SDS011;62916;50.044;15.938;2022-11-15T04:46:46;5.20;;;4.30;;
74465;SDS011;62916;50.044;15.938;2022-11-15T04:49:16;8.90;;;4.80;;
74465;SDS011;62916;50.044;15.938;2022-11-15T04:51:47;8.90;;;4.70;;
74465;SDS011;62916;50.044;15.938;2022-11-15T04:54:20;7.70;;;5.40;;
74465;SDS011;62916;50.044;15.938;2022-11-15T04:56:50;6.40;;;4.80;;
74465;SDS011;62916;50.044;15.938;2022-11-15T04:59:21;6.40;;;4.70;;
74465;SDS011;62916;50.044;15.938;2022-11-15T05:01:52;7.10;;;5.10;;
74465;SDS011;62916;50.044;15.938;2022-11-15T05:04:23;6.40;;;5.10;;
74465;SDS011;62916;50.044;15.938;2022-11-15T05:06:54;6.90;;;4.90;;
74465;SDS011;62916;50.044;15.938;2022-11-15T05:09:24;15.10;;;5.50;;
74465;SDS011;62916;50.044;15.938;2022-11-15T05:11:55;24.10;;;5.80;;
74465;SDS011;62916;50.044;15.938;2022-11-15T05:14:26;23.90;;;5.70;;
74465;SDS011;62916;50.044;15.938;2022-11-15T05:16:57;17.30;;;5.90;;
74465;SDS011;62916;50.044;15.938;2022-11-15T05:19:28;20.20;;;6.10;;
74465;SDS011;62916;50.044;15.938;2022-11-15T05:21:59;16.80;;;5.40;;
74465;SDS011;62916;50.044;15.938;2022-11-15T05:24:30;19.50;;;6.00;;
74465;SDS011;62916;50.044;15.938;2022-11-15T05:27:00;14.40;;;5.30;;
74465;SDS011;62916;50.044;15.938;2022-11-15T05:29:31;22.20;;;6.50;;
74465;SDS011;62916;50.044;15.938;2022-11-15T05:32:02;13.30;;;5.50;;
74465;SDS011;62916;50.044;15.938;2022-11-15T05:34:34;10.90;;;5.20;;
74465;SDS011;62916;50.044;15.938;2022-11-15T05:37:05;14.90;;;4.40;;
74465;SDS011;62916;50.044;15.938;2022-11-15T05:39:36;10.90;;;4.70;;
74465;SDS011;62916;50.044;15.938;2022-11-15T05:42:07;12.20;;;4.80;;
74465;SDS011;62916;50.044;15.938;2022-11-15T05:47:13;9.90;;;4.50;;
74465;SDS011;62916;50.044;15.938;2022-11-15T05:49:49;7.80;;;4.30;;
74465;SDS011;62916;50.044;15.938;2022-11-15T05:52:22;9.80;;;4.70;;
74465;SDS011;62916;50.044;15.938;2022-11-15T05:54:57;7.50;;;4.40;;
74465;SDS011;62916;50.044;15.938;2022-11-15T05:57:28;8.90;;;4.20;;
74465;SDS011;62916;50.044;15.938;2022-11-15T05:59:59;14.90;;;4.70;;
74465;SDS011;62916;50.044;15.938;2022-11-15T06:02:31;9.50;;;4.60;;
74465;SDS011;62916;50.044;15.938;2022-11-15T06:05:03;11.30;;;4.40;;
74465;SDS011;62916;50.044;15.938;2022-11-15T06:07:34;7.60;;;4.10;;
74465;SDS011;62916;50.044;15.938;2022-11-15T06:10:06;6.80;;;4.20;;
74465;SDS011;62916;50.044;15.938;2022-11-15T06:12:37;10.70;;;4.00;;
74465;SDS011;62916;50.044;15.938;2022-11-15T06:15:09;7.20;;;4.00;;
74465;SDS011;62916;50.044;15.938;2022-11-15T06:17:40;10.10;;;4.20;;
74465;SDS011;62916;50.044;15.938;2022-11-15T06:20:11;9.00;;;4.20;;
74465;SDS011;62916;50.044;15.938;2022-11-15T06:22:42;8.60;;;4.10;;
74465;SDS011;62916;50.044;15.938;2022-11-15T06:25:13;7.70;;;4.80;;
74465;SDS011;62916;50.044;15.938;2022-11-15T06:27:44;7.00;;;4.00;;
74465;SDS011;62916;50.044;15.938;2022-11-15T06:30:19;7.10;;;4.20;;
74465;SDS011;62916;50.044;15.938;2022-11-15T06:32:50;5.90;;;4.10;;
74465;SDS011;62916;50.044;15.938;2022-11-15T06:35:26;7.70;;;4.10;;
74465;SDS011;62916;50.044;15.938;2022-11-15T06:38:02;9.00;;;4.50;;
74465;SDS011;62916;50.044;15.938;2022-11-15T06:40:35;6.90;;;3.80;;
74465;SDS011;62916;50.044;15.938;2022-11-15T06:43:07;6.40;;;4.20;;
74465;SDS011;62916;50.044;15.938;2022-11-15T06:45:38;6.40;;;3.90;;
74465;SDS011;62916;50.044;15.938;2022-11-15T06:48:08;6.50;;;4.10;;
74465;SDS011;62916;50.044;15.938;2022-11-15T06:50:39;4.30;;;3.80;;
74465;SDS011;62916;50.044;15.938;2022-11-15T06:53:10;6.90;;;4.10;;
74465;SDS011;62916;50.044;15.938;2022-11-15T06:55:41;5.60;;;3.80;;
74465;SDS011;62916;50.044;15.938;2022-11-15T06:58:11;4.80;;;4.40;;
74465;SDS011;62916;50.044;15.938;2022-11-15T07:00:42;5.60;;;3.90;;
74465;SDS011;62916;50.044;15.938;2022-11-15T07:03:14;6.10;;;3.30;;
74465;SDS011;62916;50.044;15.938;2022-11-15T07:05:51;5.20;;;3.70;;
74465;SDS011;62916;50.044;15.938;2022-11-15T07:08:24;5.30;;;3.70;;
74465;SDS011;62916;50.044;15.938;2022-11-15T07:13:29;4.90;;;3.60;;
74465;SDS011;62916;50.044;15.938;2022-11-15T07:16:02;4.80;;;3.90;;
74465;SDS011;62916;50.044;15.938;2022-11-15T07:18:35;4.80;;;3.90;;
74465;SDS011;62916;50.044;15.938;2022-11-15T07:21:07;5.00;;;3.60;;
74465;SDS011;62916;50.044;15.938;2022-11-15T07:23:39;5.20;;;3.80;;
74465;SDS011;62916;50.044;15.938;2022-11-15T07:26:10;5.70;;;4.00;;
74465;SDS011;62916;50.044;15.938;2022-11-15T07:28:41;3.50;;;3.10;;
74465;SDS011;62916;50.044;15.938;2022-11-15T07:31:11;5.10;;;4.20;;
74465;SDS011;62916;50.044;15.938;2022-11-15T07:33:42;4.60;;;3.70;;
74465;SDS011;62916;50.044;15.938;2022-11-15T07:36:13;5.20;;;3.60;;
74465;SDS011;62916;50.044;15.938;2022-11-15T07:38:44;5.00;;;4.30;;
74465;SDS011;62916;50.044;15.938;2022-11-15T07:41:15;4.60;;;3.80;;
74465;SDS011;62916;50.044;15.938;2022-11-15T07:43:45;5.50;;;3.40;;
74465;SDS011;62916;50.044;15.938;2022-11-15T07:46:19;4.60;;;3.70;;
74465;SDS011;62916;50.044;15.938;2022-11-15T07:48:50;4.70;;;3.60;;
74465;SDS011;62916;50.044;15.938;2022-11-15T07:51:21;4.80;;;3.70;;
74465;SDS011;62916;50.044;15.938;2022-11-15T07:53:52;4.60;;;3.50;;
74465;SDS011;62916;50.044;15.938;2022-11-15T07:56:22;4.70;;;3.70;;
74465;SDS011;62916;50.044;15.938;2022-11-15T07:58:54;4.70;;;3.40;;
74465;SDS011;62916;50.044;15.938;2022-11-15T08:01:25;4.50;;;4.10;;
74465;SDS011;62916;50.044;15.938;2022-11-15T08:03:56;4.10;;;3.40;;
74465;SDS011;62916;50.044;15.938;2022-11-15T08:06:27;3.50;;;3.00;;
74465;SDS011;62916;50.044;15.938;2022-11-15T08:08:58;4.60;;;3.50;;
74465;SDS011;62916;50.044;15.938;2022-11-15T08:11:29;3.50;;;3.10;;
74465;SDS011;62916;50.044;15.938;2022-11-15T08:14:00;3.40;;;2.90;;
74465;SDS011;62916;50.044;15.938;2022-11-15T08:16:30;4.00;;;3.50;;
74465;SDS011;62916;50.044;15.938;2022-11-15T08:19:01;3.60;;;3.20;;
74465;SDS011;62916;50.044;15.938;2022-11-15T08:21:32;4.00;;;3.60;;
74465;SDS011;62916;50.044;15.938;2022-11-15T08:24:03;4.40;;;3.00;;
74465;SDS011;62916;50.044;15.938;2022-11-15T08:26:34;3.90;;;3.40;;
74465;SDS011;62916;50.044;15.938;2022-11-15T08:29:05;3.90;;;3.20;;
74465;SDS011;62916;50.044;15.938;2022-11-15T08:31:36;3.80;;;3.50;;
74465;SDS011;62916;50.044;15.938;2022-11-15T08:34:07;3.80;;;3.30;;
74465;SDS011;62916;50.044;15.938;2022-11-15T08:36:38;3.90;;;3.40;;
74465;SDS011;62916;50.044;15.938;2022-11-15T08:39:13;3.70;;;3.20;;
74465;SDS011;62916;50.044;15.938;2022-11-15T08:41:43;3.40;;;3.10;;
74465;SDS011;62916;50.044;15.938;2022-11-15T08:44:14;3.50;;;3.00;;
74465;SDS011;62916;50.044;15.938;2022-11-15T08:46:46;4.40;;;3.30;;
74465;SDS011;62916;50.044;15.938;2022-11-15T08:49:17;4.30;;;3.40;;
74465;SDS011;62916;50.044;15.938;2022-11-15T08:51:47;3.70;;;3.00;;
74465;SDS011;62916;50.044;15.938;2022-11-15T08:54:18;4.10;;;3.70;;
74465;SDS011;62916;50.044;15.938;2022-11-15T08:56:49;3.90;;;3.50;;
74465;SDS011;62916;50.044;15.938;2022-11-15T08:59:20;3.60;;;3.10;;
74465;SDS011;62916;50.044;15.938;2022-11-15T09:01:51;4.10;;;3.50;;
74465;SDS011;62916;50.044;15.938;2022-11-15T09:04:22;3.70;;;3.30;;
74465;SDS011;62916;50.044;15.938;2022-11-15T09:06:52;4.10;;;3.40;;
74465;SDS011;62916;50.044;15.938;2022-11-15T09:09:23;4.00;;;3.40;;
74465;SDS011;62916;50.044;15.938;2022-11-15T09:11:54;3.90;;;3.50;;
74465;SDS011;62916;50.044;15.938;2022-11-15T09:14:29;4.10;;;3.40;;
74465;SDS011;62916;50.044;15.938;2022-11-15T09:17:00;4.60;;;4.20;;
74465;SDS011;62916;50.044;15.938;2022-11-15T09:19:31;4.20;;;3.50;;
74465;SDS011;62916;50.044;15.938;2022-11-15T09:22:02;4.50;;;3.70;;
74465;SDS011;62916;50.044;15.938;2022-11-15T09:24:36;4.20;;;3.10;;
74465;SDS011;62916;50.044;15.938;2022-11-15T09:27:07;4.10;;;3.40;;
74465;SDS011;62916;50.044;15.938;2022-11-15T09:29:37;4.90;;;3.60;;
74465;SDS011;62916;50.044;15.938;2022-11-15T09:32:08;4.50;;;3.70;;
74465;SDS011;62916;50.044;15.938;2022-11-15T09:34:39;4.10;;;3.60;;
74465;SDS011;62916;50.044;15.938;2022-11-15T09:37:10;4.20;;;3.30;;
74465;SDS011;62916;50.044;15.938;2022-11-15T09:39:41;4.80;;;3.70;;
74465;SDS011;62916;50.044;15.938;2022-11-15T09:42:17;5.00;;;3.40;;
74465;SDS011;62916;50.044;15.938;2022-11-15T09:45:03;3.80;;;3.30;;
74465;SDS011;62916;50.044;15.938;2022-11-15T09:47:46;3.80;;;3.40;;
74465;SDS011;62916;50.044;15.938;2022-11-15T09:50:31;4.30;;;3.70;;
74465;SDS011;62916;50.044;15.938;2022-11-15T09:53:05;3.90;;;3.50;;
74465;SDS011;62916;50.044;15.938;2022-11-15T09:55:41;3.80;;;3.50;;
74465;SDS011;62916;50.044;15.938;2022-11-15T09:58:22;4.10;;;3.70;;
74465;SDS011;62916;50.044;15.938;2022-11-15T10:00:58;4.10;;;3.30;;
74465;SDS011;62916;50.044;15.938;2022-11-15T10:03:36;4.60;;;3.80;;
74465;SDS011;62916;50.044;15.938;2022-11-15T10:06:21;3.60;;;3.30;;
74465;SDS011;62916;50.044;15.938;2022-11-15T10:08:57;4.50;;;4.10;;
74465;SDS011;62916;50.044;15.938;2022-11-15T10:11:32;5.20;;;3.90;;
74465;SDS011;62916;50.044;15.938;2022-11-15T10:14:08;4.70;;;3.90;;
74465;SDS011;62916;50.044;15.938;2022-11-15T10:16:57;4.50;;;3.70;;
74465;SDS011;62916;50.044;15.938;2022-11-15T10:19:45;3.90;;;3.50;;
74465;SDS011;62916;50.044;15.938;2022-11-15T10:22:30;5.30;;;4.10;;
74465;SDS011;62916;50.044;15.938;2022-11-15T10:25:20;4.70;;;3.80;;
74465;SDS011;62916;50.044;15.938;2022-11-15T10:27:56;4.50;;;4.00;;
74465;SDS011;62916;50.044;15.938;2022-11-15T10:30:34;4.20;;;3.70;;
74465;SDS011;62916;50.044;15.938;2022-11-15T10:33:19;4.40;;;4.00;;
74465;SDS011;62916;50.044;15.938;2022-11-15T10:38:56;4.10;;;3.70;;
74465;SDS011;62916;50.044;15.938;2022-11-15T10:41:32;4.50;;;4.10;;
74465;SDS011;62916;50.044;15.938;2022-11-15T10:44:11;4.70;;;3.70;;
74465;SDS011;62916;50.044;15.938;2022-11-15T10:46:52;3.90;;;3.50;;
74465;SDS011;62916;50.044;15.938;2022-11-15T10:49:35;4.70;;;4.30;;
74465;SDS011;62916;50.044;15.938;2022-11-15T10:52:21;4.20;;;3.50;;
74465;SDS011;62916;50.044;15.938;2022-11-15T10:54:53;4.20;;;3.70;;
74465;SDS011;62916;50.044;15.938;2022-11-15T10:57:28;5.30;;;4.20;;
74465;SDS011;62916;50.044;15.938;2022-11-15T11:00:03;4.50;;;3.90;;
74465;SDS011;62916;50.044;15.938;2022-11-15T11:02:36;4.30;;;3.90;;
74465;SDS011;62916;50.044;15.938;2022-11-15T11:05:28;4.50;;;4.10;;
74465;SDS011;62916;50.044;15.938;2022-11-15T11:08:20;5.20;;;4.20;;
74465;SDS011;62916;50.044;15.938;2022-11-15T11:10:53;4.70;;;4.20;;
74465;SDS011;62916;50.044;15.938;2022-11-15T11:13:30;6.30;;;4.50;;
74465;SDS011;62916;50.044;15.938;2022-11-15T11:19:08;4.70;;;3.80;;
74465;SDS011;62916;50.044;15.938;2022-11-15T11:21:54;4.70;;;4.00;;
74465;SDS011;62916;50.044;15.938;2022-11-15T11:24:34;5.70;;;3.90;;
74465;SDS011;62916;50.044;15.938;2022-11-15T11:27:13;4.90;;;3.90;;
74465;SDS011;62916;50.044;15.938;2022-11-15T11:30:00;5.60;;;4.50;;
74465;SDS011;62916;50.044;15.938;2022-11-15T11:32:43;5.00;;;4.50;;
74465;SDS011;62916;50.044;15.938;2022-11-15T11:35:29;6.10;;;4.40;;
74465;SDS011;62916;50.044;15.938;2022-11-15T11:38:09;5.20;;;4.50;;
74465;SDS011;62916;50.044;15.938;2022-11-15T11:41:03;5.40;;;4.20;;
74465;SDS011;62916;50.044;15.938;2022-11-15T11:43:41;5.70;;;4.50;;
74465;SDS011;62916;50.044;15.938;2022-11-15T11:46:31;5.30;;;4.30;;
74465;SDS011;62916;50.044;15.938;2022-11-15T11:49:15;5.50;;;4.90;;
74465;SDS011;62916;50.044;15.938;2022-11-15T11:51:50;5.00;;;4.30;;
74465;SDS011;62916;50.044;15.938;2022-11-15T11:54:26;7.90;;;5.00;;
74465;SDS011;62916;50.044;15.938;2022-11-15T11:57:07;6.20;;;4.70;;
74465;SDS011;62916;50.044;15.938;2022-11-15T11:59:47;5.60;;;4.40;;
74465;SDS011;62916;50.044;15.938;2022-11-15T12:02:26;4.80;;;4.40;;
74465;SDS011;62916;50.044;15.938;2022-11-15T12:05:07;5.60;;;4.50;;
74465;SDS011;62916;50.044;15.938;2022-11-15T12:07:42;5.00;;;4.40;;
74465;SDS011;62916;50.044;15.938;2022-11-15T12:10:20;5.50;;;4.50;;
74465;SDS011;62916;50.044;15.938;2022-11-15T12:12:58;5.60;;;4.90;;
74465;SDS011;62916;50.044;15.938;2022-11-15T12:15:35;5.10;;;4.60;;
74465;SDS011;62916;50.044;15.938;2022-11-15T12:20:55;5.50;;;4.50;;
74465;SDS011;62916;50.044;15.938;2022-11-15T12:23:30;5.20;;;4.60;;
74465;SDS011;62916;50.044;15.938;2022-11-15T12:26:08;5.50;;;4.50;;
74465;SDS011;62916;50.044;15.938;2022-11-15T12:28:44;5.30;;;4.50;;
74465;SDS011;62916;50.044;15.938;2022-11-15T12:31:36;4.80;;;4.30;;
74465;SDS011;62916;50.044;15.938;2022-11-15T12:34:16;6.50;;;4.90;;
74465;SDS011;62916;50.044;15.938;2022-11-15T12:40:29;5.60;;;4.80;;
74465;SDS011;62916;50.044;15.938;2022-11-15T12:43:10;6.50;;;5.40;;
74465;SDS011;62916;50.044;15.938;2022-11-15T12:46:05;5.40;;;4.70;;
74465;SDS011;62916;50.044;15.938;2022-11-15T12:57:35;6.60;;;5.00;;
74465;SDS011;62916;50.044;15.938;2022-11-15T13:03:20;6.20;;;5.40;;
74465;SDS011;62916;50.044;15.938;2022-11-15T13:06:06;6.20;;;4.80;;
74465;SDS011;62916;50.044;15.938;2022-11-15T13:08:58;6.80;;;4.60;;
74465;SDS011;62916;50.044;15.938;2022-11-15T13:11:47;6.90;;;5.80;;
74465;SDS011;62916;50.044;15.938;2022-11-15T13:17:22;7.10;;;5.60;;
74465;SDS011;62916;50.044;15.938;2022-11-15T13:23:00;5.60;;;4.80;;
74465;SDS011;62916;50.044;15.938;2022-11-15T13:25:44;5.70;;;4.70;;
74465;SDS011;62916;50.044;15.938;2022-11-15T13:28:38;5.30;;;4.60;;
74465;SDS011;62916;50.044;15.938;2022-11-15T13:31:23;6.50;;;5.00;;
74465;SDS011;62916;50.044;15.938;2022-11-15T13:33:57;6.40;;;4.50;;
74465;SDS011;62916;50.044;15.938;2022-11-15T13:36:30;6.40;;;5.00;;
74465;SDS011;62916;50.044;15.938;2022-11-15T13:39:03;6.20;;;5.10;;
74465;SDS011;62916;50.044;15.938;2022-11-15T13:41:46;5.60;;;5.00;;
74465;SDS011;62916;50.044;15.938;2022-11-15T13:44:20;5.70;;;4.70;;
74465;SDS011;62916;50.044;15.938;2022-11-15T13:47:01;6.60;;;5.20;;
74465;SDS011;62916;50.044;15.938;2022-11-15T13:49:34;6.00;;;4.80;;
74465;SDS011;62916;50.044;15.938;2022-11-15T13:52:06;6.30;;;4.70;;
74465;SDS011;62916;50.044;15.938;2022-11-15T13:54:42;5.50;;;4.60;;
74465;SDS011;62916;50.044;15.938;2022-11-15T13:57:17;6.30;;;4.80;;
74465;SDS011;62916;50.044;15.938;2022-11-15T13:59:51;6.80;;;6.20;;
74465;SDS011;62916;50.044;15.938;2022-11-15T14:04:58;7.10;;;5.30;;
74465;SDS011;62916;50.044;15.938;2022-11-15T14:07:44;6.60;;;5.30;;
74465;SDS011;62916;50.044;15.938;2022-11-15T14:10:28;6.40;;;5.00;;
74465;SDS011;62916;50.044;15.938;2022-11-15T14:13:00;6.30;;;5.50;;
74465;SDS011;62916;50.044;15.938;2022-11-15T14:15:32;6.20;;;4.60;;
74465;SDS011;62916;50.044;15.938;2022-11-15T14:18:05;6.40;;;5.00;;
74465;SDS011;62916;50.044;15.938;2022-11-15T14:21:09;6.10;;;5.50;;
74465;SDS011;62916;50.044;15.938;2022-11-15T14:23:40;6.20;;;4.90;;
74465;SDS011;62916;50.044;15.938;2022-11-15T14:26:27;6.10;;;4.70;;
74465;SDS011;62916;50.044;15.938;2022-11-15T14:29:08;7.10;;;5.20;;
74465;SDS011;62916;50.044;15.938;2022-11-15T14:31:52;6.30;;;4.50;;
74465;SDS011;62916;50.044;15.938;2022-11-15T14:34:35;5.50;;;4.60;;
74465;SDS011;62916;50.044;15.938;2022-11-15T14:37:07;5.70;;;4.50;;
74465;SDS011;62916;50.044;15.938;2022-11-15T14:39:45;6.30;;;4.90;;
74465;SDS011;62916;50.044;15.938;2022-11-15T14:42:16;6.50;;;5.30;;
74465;SDS011;62916;50.044;15.938;2022-11-15T14:44:47;6.40;;;5.80;;
74465;SDS011;62916;50.044;15.938;2022-11-15T14:47:18;5.50;;;4.80;;
74465;SDS011;62916;50.044;15.938;2022-11-15T14:49:49;5.90;;;4.90;;
74465;SDS011;62916;50.044;15.938;2022-11-15T14:52:24;6.40;;;5.00;;
74465;SDS011;62916;50.044;15.938;2022-11-15T14:54:59;5.70;;;5.00;;
74465;SDS011;62916;50.044;15.938;2022-11-15T14:57:32;6.50;;;5.40;;
74465;SDS011;62916;50.044;15.938;2022-11-15T15:00:03;5.50;;;4.80;;
74465;SDS011;62916;50.044;15.938;2022-11-15T15:02:37;6.50;;;4.90;;
74465;SDS011;62916;50.044;15.938;2022-11-15T15:05:18;6.40;;;4.80;;
74465;SDS011;62916;50.044;15.938;2022-11-15T15:07:51;5.80;;;4.90;;
74465;SDS011;62916;50.044;15.938;2022-11-15T15:10:22;6.30;;;5.00;;
74465;SDS011;62916;50.044;15.938;2022-11-15T15:13:16;5.20;;;4.50;;
74465;SDS011;62916;50.044;15.938;2022-11-15T15:15:48;5.70;;;4.90;;
74465;SDS011;62916;50.044;15.938;2022-11-15T15:18:20;5.40;;;4.80;;
74465;SDS011;62916;50.044;15.938;2022-11-15T15:20:54;7.20;;;5.20;;
74465;SDS011;62916;50.044;15.938;2022-11-15T15:23:27;4.80;;;4.30;;
74465;SDS011;62916;50.044;15.938;2022-11-15T15:25:58;5.80;;;4.80;;
74465;SDS011;62916;50.044;15.938;2022-11-15T15:28:29;8.30;;;6.00;;
74465;SDS011;62916;50.044;15.938;2022-11-15T15:31:02;5.40;;;4.30;;
74465;SDS011;62916;50.044;15.938;2022-11-15T15:33:33;6.10;;;4.70;;
74465;SDS011;62916;50.044;15.938;2022-11-15T15:36:05;6.90;;;4.80;;
74465;SDS011;62916;50.044;15.938;2022-11-15T15:38:39;6.50;;;4.60;;
74465;SDS011;62916;50.044;15.938;2022-11-15T15:41:11;17.20;;;6.10;;
74465;SDS011;62916;50.044;15.938;2022-11-15T15:43:42;13.80;;;6.20;;
74465;SDS011;62916;50.044;15.938;2022-11-15T15:46:14;17.90;;;6.20;;
74465;SDS011;62916;50.044;15.938;2022-11-15T15:48:46;12.60;;;5.70;;
74465;SDS011;62916;50.044;15.938;2022-11-15T15:51:17;18.40;;;6.70;;
74465;SDS011;62916;50.044;15.938;2022-11-15T15:53:48;10.60;;;6.00;;
74465;SDS011;62916;50.044;15.938;2022-11-15T15:56:24;15.30;;;6.00;;
74465;SDS011;62916;50.044;15.938;2022-11-15T15:58:55;11.30;;;5.90;;
74465;SDS011;62916;50.044;15.938;2022-11-15T16:01:26;10.60;;;6.00;;
74465;SDS011;62916;50.044;15.938;2022-11-15T16:03:57;12.40;;;5.60;;
74465;SDS011;62916;50.044;15.938;2022-11-15T16:06:38;9.10;;;5.40;;